Time;durP1;ratioP1;P1;durP2;ratioP2;P2;SDS_P1;SDS_P2;PMS_P1;PMS_P2;Temp;Humidity;BMP_temperature;BMP_pressure;BME280_temperature;BME280_humidity;BME280_pressure;Samples;Min_cycle;Max_cycle;Signal;HPM_P1;HPM_P2
2022/06/15 00:01:21;;;;;;;10.80;8.37;;;14.60;99.90;;;;;;5093047;28;20286;-67
2022/06/15 00:03:48;;;;;;;9.13;8.23;;;14.60;99.90;;;;;;5093026;28;20581;-67
2022/06/15 00:06:19;;;;;;;12.80;8.97;;;14.50;99.90;;;;;;5093101;28;20192;-67
2022/06/15 00:08:47;;;;;;;9.73;8.73;;;14.40;99.90;;;;;;5093299;28;20694;-67
2022/06/15 00:11:17;;;;;;;9.87;8.97;;;14.40;99.90;;;;;;5091955;28;20262;-67
2022/06/15 00:13:44;;;;;;;9.80;8.87;;;14.30;99.90;;;;;;5092668;28;20676;-66
2022/06/15 00:16:10;;;;;;;10.67;8.57;;;14.30;99.90;;;;;;5092794;28;20648;-67
2022/06/15 00:18:36;;;;;;;10.03;9.03;;;14.30;99.90;;;;;;5091614;28;20185;-67
2022/06/15 00:21:03;;;;;;;10.67;9.00;;;14.30;99.90;;;;;;5092708;28;20560;-67
2022/06/15 00:23:30;;;;;;;10.20;9.20;;;14.20;99.90;;;;;;5091281;28;20186;-67
2022/06/15 00:25:57;;;;;;;11.57;9.83;;;14.20;99.90;;;;;;5092567;28;20280;-67
2022/06/15 00:28:24;;;;;;;11.57;10.07;;;14.10;99.90;;;;;;5092671;28;20173;-67
2022/06/15 00:30:50;;;;;;;9.90;9.10;;;14.00;99.90;;;;;;5092410;28;20209;-67
2022/06/15 00:33:19;;;;;;;13.67;9.63;;;14.00;99.90;;;;;;5092569;28;20212;-67
2022/06/15 00:35:59;;;;;;;9.67;8.97;;;13.90;99.90;;;;;;5092174;28;20170;-66
2022/06/15 00:38:28;;;;;;;10.37;9.40;;;13.80;99.90;;;;;;5092575;28;20193;-67
2022/06/15 00:40:55;;;;;;;10.77;9.87;;;13.80;99.90;;;;;;5090964;28;20242;-67
2022/06/15 00:43:38;;;;;;;10.83;9.83;;;13.80;99.90;;;;;;5091434;28;20206;-67
2022/06/15 00:46:27;;;;;;;10.77;9.37;;;13.80;99.90;;;;;;5092181;28;20526;-67
2022/06/15 00:49:11;;;;;;;11.07;10.03;;;13.80;99.90;;;;;;5082825;28;20276;-66
2022/06/15 00:51:37;;;;;;;10.93;9.60;;;13.70;99.90;;;;;;5092198;28;20220;-67
2022/06/15 00:54:04;;;;;;;10.70;9.70;;;13.70;99.90;;;;;;5091572;28;20208;-67
2022/06/15 00:56:31;;;;;;;10.27;9.23;;;13.60;99.90;;;;;;5092311;28;20173;-66
2022/06/15 00:59:02;;;;;;;10.53;9.67;;;13.50;99.90;;;;;;5090430;28;20655;-66
2022/06/15 01:01:27;;;;;;;10.23;9.10;;;13.50;99.90;;;;;;5092293;28;20174;-66
2022/06/15 01:03:56;;;;;;;9.50;8.73;;;13.40;99.90;;;;;;5090122;28;20178;-66
2022/06/15 01:06:44;;;;;;;10.80;9.40;;;13.40;99.90;;;;;;5091978;28;20177;-66
2022/06/15 01:09:24;;;;;;;11.60;9.90;;;13.30;99.90;;;;;;5091896;28;20205;-66
2022/06/15 01:12:08;;;;;;;10.87;9.73;;;13.30;99.90;;;;;;5092006;28;20185;-66
2022/06/15 01:15:06;;;;;;;12.20;9.23;;;13.30;99.90;;;;;;5089967;28;20715;-66
2022/06/15 01:17:51;;;;;;;10.73;9.73;;;13.30;99.90;;;;;;5091887;28;20169;-66
2022/06/15 01:20:25;;;;;;;10.90;9.90;;;13.30;99.90;;;;;;5091469;28;20205;-66
2022/06/15 01:23:06;;;;;;;11.80;8.93;;;13.30;99.90;;;;;;5091632;28;20186;-66
2022/06/15 01:26:00;;;;;;;10.13;9.23;;;13.40;99.90;;;;;;5091407;28;20173;-66
2022/06/15 01:28:38;;;;;;;11.30;9.87;;;13.40;99.90;;;;;;5071481;28;20172;-66
2022/06/15 01:31:24;;;;;;;10.30;9.00;;;13.40;99.90;;;;;;5072917;28;20680;-66
2022/06/15 01:34:19;;;;;;;10.07;9.17;;;13.30;99.90;;;;;;5090134;28;20220;-66
2022/06/15 01:36:56;;;;;;;14.53;8.40;;;13.30;99.90;;;;;;5091772;28;20652;-66
2022/06/15 01:39:48;;;;;;;11.87;9.50;;;13.20;99.90;;;;;;5091271;28;20589;-66
2022/06/15 01:42:17;;;;;;;10.03;9.03;;;13.10;99.90;;;;;;5091200;28;20193;-66
2022/06/15 01:44:48;;;;;;;14.30;9.43;;;13.20;99.90;;;;;;5091248;28;20511;-66
2022/06/15 01:47:18;;;;;;;9.77;8.90;;;13.20;99.90;;;;;;5091470;28;20180;-66
2022/06/15 01:50:09;;;;;;;9.90;9.10;;;13.20;99.90;;;;;;5091203;28;20227;-66
2022/06/15 01:52:49;;;;;;;9.77;8.83;;;13.20;99.90;;;;;;5089991;28;20180;-67
2022/06/15 01:55:31;;;;;;;11.70;9.43;;;13.10;99.90;;;;;;5089546;28;20180;-66
2022/06/15 01:58:01;;;;;;;10.50;9.30;;;13.00;99.90;;;;;;5091407;28;20636;-66
2022/06/15 02:00:27;;;;;;;9.90;9.00;;;12.90;99.90;;;;;;5090922;28;20189;-66
2022/06/15 02:03:07;;;;;;;11.47;9.60;;;12.90;99.90;;;;;;5091475;28;20183;-66
2022/06/15 02:05:59;;;;;;;10.90;9.57;;;12.80;99.90;;;;;;5090754;28;20592;-66
2022/06/15 02:09:01;;;;;;;10.23;9.33;;;12.80;99.90;;;;;;5091247;28;20226;-66
2022/06/15 02:11:32;;;;;;;11.27;9.10;;;12.70;99.90;;;;;;5089961;28;20176;-66
2022/06/15 02:14:06;;;;;;;10.77;9.57;;;12.60;99.90;;;;;;5090659;28;20648;-66
2022/06/15 02:16:43;;;;;;;12.03;10.23;;;12.60;99.90;;;;;;5089895;28;20617;-66
2022/06/15 02:19:12;;;;;;;15.17;10.13;;;12.60;99.90;;;;;;5091194;28;20552;-66
2022/06/15 02:21:40;;;;;;;10.57;9.60;;;12.60;99.90;;;;;;5091573;28;20173;-66
2022/06/15 02:24:09;;;;;;;9.97;9.07;;;12.50;99.90;;;;;;5089368;28;20181;-66
2022/06/15 02:26:37;;;;;;;10.67;9.60;;;12.50;99.90;;;;;;5089929;28;20261;-66
2022/06/15 02:29:08;;;;;;;10.40;9.40;;;12.50;99.90;;;;;;5089213;28;20177;-66
2022/06/15 02:31:35;;;;;;;11.13;9.97;;;12.50;99.90;;;;;;5091070;28;20186;-66
2022/06/15 02:34:02;;;;;;;11.07;9.27;;;12.40;99.90;;;;;;5090592;28;20189;-66
2022/06/15 02:36:31;;;;;;;13.73;10.67;;;12.40;99.90;;;;;;5090622;28;20174;-66
2022/06/15 02:38:57;;;;;;;11.53;10.40;;;12.30;99.90;;;;;;5090733;28;20257;-66
2022/06/15 02:41:22;;;;;;;11.40;10.23;;;12.30;99.90;;;;;;5091012;28;20249;-66
2022/06/15 02:43:53;;;;;;;12.60;10.47;;;12.30;99.90;;;;;;5090223;28;20181;-66
2022/06/15 02:46:21;;;;;;;12.60;11.27;;;12.20;99.90;;;;;;5090847;28;20724;-66
2022/06/15 02:48:46;;;;;;;10.63;9.63;;;12.20;99.90;;;;;;5090756;28;20173;-66
2022/06/15 02:51:22;;;;;;;11.47;10.30;;;12.20;99.90;;;;;;5091092;28;20209;-66
2022/06/15 02:53:51;;;;;;;12.07;10.87;;;12.10;99.90;;;;;;5090192;28;20232;-66
2022/06/15 02:56:19;;;;;;;10.37;9.50;;;12.00;99.90;;;;;;5090846;28;20170;-66
2022/06/15 02:58:48;;;;;;;11.30;10.30;;;12.00;99.90;;;;;;5090635;28;20531;-66
2022/06/15 03:01:14;;;;;;;15.03;11.13;;;12.00;99.90;;;;;;5090758;28;20487;-66
2022/06/15 03:03:40;;;;;;;10.80;9.87;;;12.00;99.90;;;;;;5090234;28;20238;-66
2022/06/15 03:06:14;;;;;;;11.90;10.33;;;11.90;99.90;;;;;;5091659;28;20636;-67
2022/06/15 03:08:39;;;;;;;12.00;10.53;;;11.80;99.90;;;;;;5094215;28;20539;-65
2022/06/15 03:11:05;;;;;;;11.97;10.87;;;11.80;99.90;;;;;;5094083;28;20197;-66
2022/06/15 03:13:31;;;;;;;11.13;9.70;;;11.70;99.90;;;;;;5093915;28;20675;-66
2022/06/15 03:16:01;;;;;;;13.97;10.87;;;11.70;99.90;;;;;;5093922;28;20169;-66
2022/06/15 03:18:27;;;;;;;19.53;11.70;;;11.70;99.90;;;;;;5092662;28;20261;-66
2022/06/15 03:21:01;;;;;;;12.17;11.07;;;11.70;99.90;;;;;;5092622;28;20193;-65
2022/06/15 03:23:29;;;;;;;12.33;10.70;;;11.70;99.90;;;;;;5093863;28;20191;-65
2022/06/15 03:25:56;;;;;;;16.03;11.30;;;11.60;99.90;;;;;;5093779;28;20248;-67
2022/06/15 03:28:22;;;;;;;13.10;11.77;;;11.60;99.90;;;;;;5093759;28;20170;-65
2022/06/15 03:30:49;;;;;;;14.97;10.43;;;11.60;99.90;;;;;;5092350;28;20304;-65
2022/06/15 03:33:14;;;;;;;13.67;11.17;;;11.60;99.90;;;;;;5073552;28;20198;-65
2022/06/15 03:35:41;;;;;;;12.30;11.10;;;11.50;99.90;;;;;;5073423;28;20418;-66
2022/06/15 03:38:08;;;;;;;14.10;9.83;;;11.50;99.90;;;;;;5092579;28;20211;-65
2022/06/15 03:40:39;;;;;;;12.03;10.60;;;11.50;99.90;;;;;;5092007;28;20268;-65
2022/06/15 03:43:05;;;;;;;11.50;10.40;;;11.50;99.90;;;;;;5093805;28;20173;-65
2022/06/15 03:45:30;;;;;;;12.40;11.13;;;11.60;99.90;;;;;;5092971;28;20185;-65
2022/06/15 03:47:56;;;;;;;15.87;12.37;;;11.70;99.90;;;;;;5093678;28;20746;-65
2022/06/15 03:50:23;;;;;;;11.80;10.80;;;11.80;99.90;;;;;;5093338;28;20275;-65
2022/06/15 03:52:50;;;;;;;12.00;10.90;;;11.80;99.90;;;;;;5093560;28;20246;-67
2022/06/15 03:55:17;;;;;;;11.83;10.73;;;11.80;99.90;;;;;;5092990;28;20172;-65
2022/06/15 03:57:42;;;;;;;12.63;11.07;;;11.80;99.90;;;;;;5093580;28;20699;-66
2022/06/15 04:00:11;;;;;;;13.83;10.93;;;11.80;99.90;;;;;;5092906;28;20280;-65
2022/06/15 04:02:37;;;;;;;11.47;10.20;;;11.80;99.90;;;;;;5093254;28;20684;-65
2022/06/15 04:05:03;;;;;;;11.00;9.90;;;11.90;99.90;;;;;;5092899;28;20374;-65
2022/06/15 04:10:15;;;;;;;10.97;9.97;;;12.00;99.90;;;;;;5092877;28;20196;-66
2022/06/15 04:12:43;;;;;;;12.13;10.90;;;12.10;99.90;;;;;;5092980;28;20174;-66
2022/06/15 04:15:10;;;;;;;12.20;11.10;;;12.30;99.90;;;;;;5092614;28;20180;-66
2022/06/15 04:17:36;;;;;;;11.53;9.93;;;12.50;99.90;;;;;;5092853;28;20222;-66
2022/06/15 04:22:47;;;;;;;10.47;9.20;;;12.80;99.90;;;;;;5093316;28;20180;-66
2022/06/15 04:25:13;;;;;;;10.93;9.30;;;13.10;99.90;;;;;;5092393;28;20248;-66
2022/06/15 04:27:38;;;;;;;14.37;9.77;;;13.50;99.90;;;;;;5092873;28;20170;-66
2022/06/15 04:30:04;;;;;;;9.60;8.90;;;13.90;99.90;;;;;;5102687;22;20250;-65
2022/06/15 04:32:30;;;;;;;9.87;8.87;;;14.30;99.90;;;;;;5052358;28;20598;-63
2022/06/15 04:34:56;;;;;;;8.63;7.93;;;14.70;99.90;;;;;;5051977;28;20179;-64
2022/06/15 04:37:22;;;;;;;11.93;8.40;;;15.10;99.90;;;;;;5052538;28;20174;-64
2022/06/15 04:39:48;;;;;;;11.23;8.10;;;15.60;99.90;;;;;;5051371;28;20203;-63
2022/06/15 04:42:13;;;;;;;10.93;7.90;;;16.10;99.90;;;;;;5032194;28;20186;-64
2022/06/15 04:44:39;;;;;;;10.93;7.53;;;16.50;99.90;;;;;;5031982;28;20672;-64
2022/06/15 04:47:05;;;;;;;10.03;8.40;;;16.80;99.90;;;;;;5051324;28;20218;-64
2022/06/15 04:49:30;;;;;;;10.57;7.97;;;17.20;99.90;;;;;;5052136;28;20626;-64
2022/06/15 04:51:56;;;;;;;12.60;11.63;;;17.60;99.90;;;;;;5034285;28;20262;-64
2022/06/15 04:54:22;;;;;;;9.27;8.37;;;17.90;99.90;;;;;;5031762;28;20214;-64
2022/06/15 04:56:48;;;;;;;8.47;7.63;;;18.10;99.90;;;;;;5047771;28;20233;-63
2022/06/15 04:59:13;;;;;;;7.60;6.93;;;18.50;99.90;;;;;;5051823;28;20186;-64
2022/06/15 05:01:39;;;;;;;7.90;7.00;;;18.70;99.90;;;;;;5050385;28;20649;-64
2022/06/15 05:04:05;;;;;;;10.77;7.03;;;19.00;99.90;;;;;;5046051;28;20184;-63
2022/06/15 05:06:35;;;;;;;7.77;6.87;;;19.30;99.90;;;;;;5031840;28;20191;-64
2022/06/15 05:09:03;;;;;;;7.23;6.57;;;19.50;99.90;;;;;;5035983;28;20209;-64
2022/06/15 05:11:28;;;;;;;7.83;7.03;;;19.70;99.90;;;;;;5050636;28;20700;-64
2022/06/15 05:13:54;;;;;;;7.37;6.60;;;19.80;99.90;;;;;;5048467;28;20202;-64
2022/06/15 05:16:20;;;;;;;9.23;6.55;;;20.10;99.90;;;;;;5031711;28;20167;-64
2022/06/15 05:18:46;;;;;;;10.15;6.57;;;20.30;99.90;;;;;;5032611;28;20184;-64
2022/06/15 05:21:12;;;;;;;11.68;7.68;;;20.40;99.90;;;;;;5051477;28;20247;-64
2022/06/15 05:23:38;;;;;;;8.02;6.18;;;20.40;99.90;;;;;;5051337;28;20182;-64
2022/06/15 05:26:04;;;;;;;7.45;6.50;;;20.50;99.90;;;;;;5031894;28;20650;-64
2022/06/15 05:28:29;;;;;;;8.87;7.57;;;20.40;99.90;;;;;;5031008;28;20203;-64
2022/06/15 05:31:06;;;;;;;9.55;6.43;;;20.60;99.90;;;;;;5032218;28;20302;-64
2022/06/15 05:33:33;;;;;;;9.93;6.85;;;20.60;99.90;;;;;;5031262;28;20751;-64
2022/06/15 05:36:08;;;;;;;10.13;6.53;;;20.70;99.90;;;;;;5050459;28;20672;-66
2022/06/15 05:38:34;;;;;;;7.03;6.43;;;20.80;99.90;;;;;;5051263;28;20292;-64
2022/06/15 05:40:59;;;;;;;6.43;5.82;;;21.00;99.90;;;;;;5031966;28;20701;-64
2022/06/15 05:43:25;;;;;;;10.00;6.97;;;21.10;99.90;;;;;;5031211;28;20176;-64
2022/06/15 05:45:50;;;;;;;6.80;5.78;;;21.40;99.90;;;;;;5048497;28;20182;-64
2022/06/15 05:48:16;;;;;;;12.32;6.28;;;21.50;99.90;;;;;;5050113;28;20305;-63
2022/06/15 05:50:42;;;;;;;7.53;6.45;;;21.70;99.90;;;;;;5035214;28;20199;-64
2022/06/15 05:53:07;;;;;;;5.93;5.43;;;21.60;99.90;;;;;;5031252;28;20218;-64
2022/06/15 05:55:33;;;;;;;6.63;5.55;;;21.70;99.90;;;;;;5044494;28;20516;-64
2022/06/15 05:57:58;;;;;;;8.00;5.65;;;22.00;99.90;;;;;;5048330;28;20186;-64
2022/06/15 06:00:25;;;;;;;10.65;5.82;;;22.30;99.90;;;;;;5033326;28;20245;-64
2022/06/15 06:02:51;;;;;;;5.45;5.05;;;22.50;99.90;;;;;;5042252;28;20650;-66
2022/06/15 06:05:17;;;;;;;7.85;5.50;;;22.80;99.90;;;;;;5050493;28;20171;-64
2022/06/15 06:07:43;;;;;;;9.23;5.07;;;23.20;99.90;;;;;;5040868;28;20664;-63
2022/06/15 06:10:09;;;;;;;5.57;4.50;;;23.50;99.90;;;;;;5031254;28;20194;-64
2022/06/15 06:12:35;;;;;;;7.78;4.88;;;23.80;99.90;;;;;;5037875;28;20182;-63
2022/06/15 06:15:01;;;;;;;5.32;4.72;;;24.00;99.90;;;;;;5049953;28;20175;-64
2022/06/15 06:17:26;;;;;;;9.73;5.07;;;24.30;99.90;;;;;;5044084;28;20202;-64
2022/06/15 06:19:52;;;;;;;6.10;5.43;;;24.10;99.90;;;;;;5031236;28;20202;-64
2022/06/15 06:22:18;;;;;;;8.10;6.05;;;24.00;99.90;;;;;;5035225;28;20167;-64
2022/06/15 06:24:43;;;;;;;6.70;5.45;;;24.20;99.90;;;;;;5049146;28;20183;-64
2022/06/15 06:27:12;;;;;;;5.82;5.20;;;24.50;99.90;;;;;;5030865;28;20226;-64
2022/06/15 06:29:38;;;;;;;6.82;6.03;;;24.80;99.90;;;;;;5030342;28;20219;-64
2022/06/15 06:32:04;;;;;;;6.88;5.53;;;24.90;99.90;;;;;;5042827;28;20538;-65
2022/06/15 06:34:30;;;;;;;6.80;5.93;;;25.20;99.90;;;;;;5030216;28;20710;-64
2022/06/15 06:36:57;;;;;;;9.18;6.22;;;25.50;99.90;;;;;;5030772;28;20168;-64
2022/06/15 06:39:29;;;;;;;8.80;6.65;;;25.70;99.90;;;;;;5030542;28;20175;-64
2022/06/15 06:41:56;;;;;;;8.18;6.18;;;25.70;99.90;;;;;;5050749;28;20175;-64
2022/06/15 06:44:22;;;;;;;9.90;6.70;;;25.50;99.90;;;;;;5053731;28;20236;-64
2022/06/15 06:46:49;;;;;;;8.55;5.95;;;25.40;99.90;;;;;;5021120;28;20179;-65
2022/06/15 06:49:16;;;;;;;6.72;5.75;;;25.70;99.90;;;;;;5034284;28;20587;-64
2022/06/15 06:51:43;;;;;;;6.20;5.60;;;25.70;99.90;;;;;;5035682;28;20655;-65
2022/06/15 06:54:12;;;;;;;7.40;6.05;;;25.60;99.90;;;;;;5033959;28;20215;-64
2022/06/15 06:56:38;;;;;;;6.63;6.10;;;25.70;99.90;;;;;;5046908;28;20175;-64
2022/06/15 06:59:06;;;;;;;6.85;5.55;;;26.10;99.90;;;;;;5052768;28;20211;-65
2022/06/15 07:01:35;;;;;;;10.88;6.18;;;26.30;99.90;;;;;;5045269;28;20195;-64
2022/06/15 07:04:01;;;;;;;8.90;6.18;;;26.50;99.90;;;;;;5053873;28;20179;-65
2022/06/15 07:06:27;;;;;;;5.55;5.13;;;26.80;99.90;;;;;;5043320;28;20202;-64
2022/06/15 07:08:52;;;;;;;9.48;5.93;;;26.80;99.90;;;;;;5034128;28;20654;-64
2022/06/15 07:11:18;;;;;;;6.43;4.88;;;27.20;99.90;;;;;;5041060;28;20195;-64
2022/06/15 07:13:45;;;;;;;5.78;4.80;;;27.40;99.90;;;;;;5053493;28;20210;-65
2022/06/15 07:16:16;;;;;;;7.25;5.10;;;27.70;99.90;;;;;;5052221;28;20202;-64
2022/06/15 07:18:43;;;;;;;8.95;4.75;;;28.00;99.90;;;;;;5050773;28;20171;-65
2022/06/15 07:21:12;;;;;;;9.27;5.07;;;28.20;99.90;;;;;;5033851;28;20203;-64
2022/06/15 07:23:38;;;;;;;8.30;5.93;;;28.10;99.90;;;;;;5035007;28;20178;-64
2022/06/15 07:26:10;;;;;;;8.82;5.78;;;27.70;99.90;;;;;;5053748;28;20182;-64
2022/06/15 07:28:35;;;;;;;8.05;4.78;;;27.80;99.90;;;;;;5052272;28;20190;-64
2022/06/15 07:31:01;;;;;;;6.00;4.65;;;28.00;99.90;;;;;;5033576;28;20219;-64
2022/06/15 07:33:27;;;;;;;6.35;4.22;;;28.20;99.90;;;;;;5033244;28;20697;-64
2022/06/15 07:35:52;;;;;;;5.15;4.40;;;28.40;99.90;;;;;;5052521;28;20182;-64
2022/06/15 07:38:19;;;;;;;8.07;4.65;;;28.60;99.90;;;;;;5053562;28;20221;-65
2022/06/15 07:40:46;;;;;;;10.00;4.20;;;28.90;99.90;;;;;;5035408;28;20226;-65
2022/06/15 07:43:12;;;;;;;5.40;4.50;;;29.20;99.90;;;;;;5033606;28;20262;-64
2022/06/15 07:45:37;;;;;;;4.72;4.22;;;29.60;99.90;;;;;;5048811;28;20775;-65
2022/06/15 07:50:47;;;;;;;5.43;3.90;;;29.80;99.90;;;;;;5053021;28;20573;-65
2022/06/15 07:53:14;;;;;;;6.47;4.53;;;29.70;99.90;;;;;;5038279;28;20203;-64
2022/06/15 07:55:43;;;;;;;7.57;4.85;;;29.70;99.90;;;;;;5032840;28;20176;-64
2022/06/15 07:58:10;;;;;;;7.65;4.63;;;29.80;99.90;;;;;;5046547;28;20179;-64
2022/06/15 08:00:37;;;;;;;6.05;4.30;;;29.40;99.90;;;;;;5052985;28;20654;-64
2022/06/15 08:03:04;;;;;;;7.53;4.60;;;29.00;99.90;;;;;;5041024;28;20270;-64
2022/06/15 08:05:35;;;;;;;11.13;5.00;;;29.20;99.90;;;;;;5032613;28;20179;-64
2022/06/15 08:08:10;;;;;;;8.57;4.53;;;29.70;99.90;;;;;;5052940;28;20186;-65
2022/06/15 08:10:36;;;;;;;6.47;4.30;;;30.20;99.90;;;;;;5052468;28;20627;-65
2022/06/15 08:13:04;;;;;;;4.57;4.18;;;30.20;99.90;;;;;;5011679;28;20208;-64
2022/06/15 08:15:30;;;;;;;6.85;4.43;;;29.80;99.90;;;;;;5031102;28;20212;-64
2022/06/15 08:18:02;;;;;;;4.80;4.38;;;29.40;99.90;;;;;;5052724;28;20683;-64
2022/06/15 08:20:36;;;;;;;4.47;4.05;;;29.30;99.90;;;;;;5044024;28;20631;-65
2022/06/15 08:23:06;;;;;;;5.30;4.28;;;29.60;99.90;;;;;;5032701;28;20262;-65
2022/06/15 08:25:35;;;;;;;4.60;4.13;;;30.20;99.90;;;;;;5040277;28;20178;-65
2022/06/15 08:28:02;;;;;;;6.97;4.50;;;30.50;99.90;;;;;;5052615;28;20214;-65
2022/06/15 08:30:28;;;;;;;7.80;4.47;;;30.40;99.90;;;;;;5045058;28;20207;-65
2022/06/15 08:32:53;;;;;;;4.70;4.05;;;30.30;99.90;;;;;;5032526;28;20195;-65
2022/06/15 08:35:20;;;;;;;5.45;3.70;;;30.40;99.90;;;;;;5036682;28;20171;-64
2022/06/15 08:37:46;;;;;;;8.30;4.30;;;30.50;99.90;;;;;;5052410;28;20166;-64
2022/06/15 08:40:12;;;;;;;5.95;4.00;;;30.40;99.90;;;;;;5048715;28;20684;-64
2022/06/15 08:42:52;;;;;;;6.72;4.45;;;30.50;99.90;;;;;;5032717;28;20217;-64
2022/06/15 08:45:21;;;;;;;5.80;3.50;;;30.70;99.90;;;;;;5051758;28;20163;-65
2022/06/15 08:47:47;;;;;;;6.20;4.18;;;31.00;99.90;;;;;;5041657;28;20590;-65
2022/06/15 08:50:30;;;;;;;5.10;3.92;;;30.90;99.90;;;;;;5031152;28;20219;-65
2022/06/15 08:53:12;;;;;;;4.05;3.45;;;30.80;99.90;;;;;;5042533;28;20208;-65
2022/06/15 08:55:56;;;;;;;5.78;3.55;;;31.10;99.90;;;;;;5051400;28;20174;-65
2022/06/15 08:58:33;;;;;;;10.85;4.00;;;31.80;99.90;;;;;;5037627;28;20186;-65
2022/06/15 09:01:09;;;;;;;4.25;3.83;;;32.00;99.90;;;;;;5031838;28;20191;-65
2022/06/15 09:03:45;;;;;;;5.00;3.80;;;32.00;99.50;;;;;;5023631;28;20264;-65
2022/06/15 09:06:28;;;;;;;3.85;3.45;;;32.10;99.90;;;;;;5030846;28;20183;-65
2022/06/15 09:09:26;;;;;;;5.32;3.28;;;32.20;98.50;;;;;;5048196;28;20190;-65
2022/06/15 09:15:02;;;;;;;7.68;3.60;;;32.10;99.40;;;;;;5051218;28;20348;-65
2022/06/15 09:17:30;;;;;;;4.55;3.35;;;32.30;99.90;;;;;;5035863;28;20191;-65
2022/06/15 09:20:02;;;;;;;6.75;3.40;;;32.30;99.00;;;;;;5031932;28;20271;-64
2022/06/15 09:22:39;;;;;;;6.20;3.60;;;32.30;98.30;;;;;;5046401;28;20178;-64
2022/06/15 09:25:32;;;;;;;8.32;3.90;;;32.20;97.20;;;;;;5052491;28;20668;-64
2022/06/15 09:28:01;;;;;;;4.25;3.50;;;32.00;97.90;;;;;;5033620;28;20547;-64
2022/06/15 09:30:31;;;;;;;5.05;3.33;;;31.80;96.00;;;;;;5031701;28;20223;-64
2022/06/15 09:33:25;;;;;;;5.05;3.03;;;31.70;96.80;;;;;;5033730;28;20195;-64
2022/06/15 09:35:56;;;;;;;5.05;3.70;;;32.00;97.30;;;;;;5031568;28;20175;-64
2022/06/15 09:38:22;;;;;;;4.25;3.10;;;32.30;98.00;;;;;;5032841;28;20183;-64
2022/06/15 09:40:59;;;;;;;5.88;3.72;;;32.70;95.40;;;;;;5031373;28;20559;-65
2022/06/15 09:43:49;;;;;;;5.10;3.13;;;33.00;96.00;;;;;;5030798;28;20708;-65
2022/06/15 09:46:38;;;;;;;6.03;3.00;;;33.50;95.50;;;;;;5021086;28;20203;-64
2022/06/15 09:49:23;;;;;;;3.97;3.28;;;34.10;94.90;;;;;;5050994;28;20174;-64
2022/06/15 09:52:09;;;;;;;4.45;2.90;;;34.50;94.90;;;;;;5045702;28;20225;-64
2022/06/15 09:54:59;;;;;;;7.47;3.42;;;34.60;94.40;;;;;;5030175;28;20202;-64
2022/06/15 09:57:26;;;;;;;7.10;2.90;;;34.30;94.70;;;;;;5039772;28;20261;-65
2022/06/15 09:59:52;;;;;;;3.72;3.40;;;34.00;93.10;;;;;;5050659;28;20282;-64
2022/06/15 10:02:30;;;;;;;3.40;3.10;;;34.00;95.40;;;;;;5042666;28;20262;-65
2022/06/15 10:04:57;;;;;;;3.08;2.50;;;34.20;93.00;;;;;;5035221;28;20225;-65
2022/06/15 10:07:36;;;;;;;4.15;2.80;;;34.50;92.50;;;;;;5045609;28;20645;-65
2022/06/15 10:10:21;;;;;;;3.53;2.92;;;34.60;91.00;;;;;;5050622;28;20191;-64
2022/06/15 10:13:10;;;;;;;4.18;3.30;;;34.00;92.10;;;;;;5039438;28;20187;-65
2022/06/15 10:15:51;;;;;;;5.50;2.90;;;34.30;93.40;;;;;;5001562;28;20195;-64
2022/06/15 10:18:43;;;;;;;5.47;2.60;;;34.60;92.00;;;;;;5030073;28;20190;-64
2022/06/15 10:21:14;;;;;;;4.85;3.13;;;34.50;90.50;;;;;;5031419;28;20203;-64
2022/06/15 10:23:58;;;;;;;3.55;2.78;;;34.10;90.10;;;;;;5031581;28;20187;-63
2022/06/15 10:26:47;;;;;;;3.38;3.08;;;33.70;86.90;;;;;;5032432;28;20186;-65
2022/06/15 10:29:15;;;;;;;5.30;3.10;;;33.40;90.20;;;;;;5031851;28;20214;-64
2022/06/15 10:31:55;;;;;;;3.35;2.85;;;33.40;86.90;;;;;;5082231;22;20226;-68
2022/06/15 10:34:28;;;;;;;2.88;2.67;;;33.40;89.60;;;;;;5072854;28;20336;-66
2022/06/15 10:36:57;;;;;;;5.40;2.97;;;33.10;88.60;;;;;;5054336;28;20526;-66
2022/06/15 10:39:24;;;;;;;3.97;3.20;;;33.20;90.90;;;;;;5054142;28;20194;-66
2022/06/15 10:41:50;;;;;;;4.53;3.03;;;33.50;88.00;;;;;;5054400;28;20190;-67
2022/06/15 10:44:18;;;;;;;6.40;3.08;;;33.40;91.30;;;;;;5068412;28;20189;-67
2022/06/15 10:47:27;;;;;;;5.25;2.85;;;33.70;89.60;;;;;;5074189;28;20649;-66
2022/06/15 10:50:00;;;;;;;3.30;2.97;;;34.10;85.20;;;;;;4972257;28;20602;-66
2022/06/15 10:52:38;;;;;;;4.03;2.63;;;33.90;85.20;;;;;;5041247;28;20715;-67
2022/06/15 11:04:18;;;;;;;5.30;3.85;;;33.80;82.00;;;;;;5063423;28;20615;-67
2022/06/15 11:06:50;;;;;;;5.13;2.90;;;34.30;79.20;;;;;;5073778;28;20633;-66
2022/06/15 11:09:26;;;;;;;3.40;3.10;;;34.00;76.20;;;;;;5062788;28;20265;-66
2022/06/15 11:11:53;;;;;;;2.55;2.35;;;33.80;80.80;;;;;;5053816;28;20621;-66
2022/06/15 11:14:41;;;;;;;5.43;2.90;;;34.30;82.50;;;;;;5063970;28;20194;-66
2022/06/15 11:20:26;;;;;;;3.58;3.25;;;34.30;78.10;;;;;;5055464;28;20217;-65
2022/06/15 11:22:57;;;;;;;3.97;3.05;;;34.30;74.80;;;;;;5053727;28;20337;-66
2022/06/15 11:25:37;;;;;;;4.68;2.80;;;34.30;77.00;;;;;;5071135;28;20178;-66
2022/06/15 11:28:09;;;;;;;3.58;2.67;;;34.30;73.20;;;;;;5073659;28;20177;-67
2022/06/15 11:30:42;;;;;;;2.97;2.70;;;34.40;72.90;;;;;;5071324;28;20213;-66
2022/06/15 11:33:15;;;;;;;3.38;2.70;;;34.60;77.10;;;;;;5072899;28;20194;-66
2022/06/15 11:35:51;;;;;;;6.38;2.80;;;34.70;68.70;;;;;;5053145;28;20227;-66
2022/06/15 11:38:30;;;;;;;3.40;3.20;;;34.60;76.10;;;;;;5053265;28;20201;-66
2022/06/15 11:41:14;;;;;;;3.00;2.72;;;34.20;71.10;;;;;;5061439;28;20201;-65
2022/06/15 11:43:43;;;;;;;3.60;2.85;;;33.80;70.20;;;;;;5063904;28;20178;-65
2022/06/15 11:46:24;;;;;;;4.43;2.80;;;33.80;78.40;;;;;;5067918;28;20684;-66
2022/06/15 11:49:08;;;;;;;4.03;2.83;;;33.90;72.00;;;;;;5052677;28;20194;-66
2022/06/15 11:52:04;;;;;;;3.03;2.55;;;33.80;74.70;;;;;;5069834;28;20718;-66
2022/06/15 11:54:45;;;;;;;4.70;3.17;;;33.90;72.70;;;;;;5059581;28;20248;-67
2022/06/15 11:57:13;;;;;;;3.63;3.05;;;33.70;72.40;;;;;;5071270;28;20170;-67
2022/06/15 12:00:19;;;;;;;4.78;2.95;;;33.80;71.90;;;;;;5065202;28;20643;-67
2022/06/15 12:02:57;;;;;;;5.68;2.92;;;33.90;77.00;;;;;;5051126;28;20204;-66
2022/06/15 12:05:34;;;;;;;5.03;2.72;;;34.40;75.90;;;;;;5072015;28;20173;-67
2022/06/15 12:08:46;;;;;;;4.45;2.78;;;35.20;76.60;;;;;;5067881;28;20201;-67
2022/06/15 12:14:24;;;;;;;3.92;2.85;;;35.50;73.90;;;;;;4969772;28;20213;-66
2022/06/15 12:17:14;;;;;;;3.95;3.00;;;35.70;75.60;;;;;;5040681;28;20193;-65
2022/06/15 12:20:15;;;;;;;3.00;2.80;;;35.30;71.00;;;;;;5056205;28;20603;-65
2022/06/15 12:23:23;;;;;;;7.50;2.90;;;35.30;70.70;;;;;;5047835;28;20194;-66
2022/06/15 12:25:55;;;;;;;4.28;2.50;;;35.40;70.80;;;;;;5059013;28;20311;-66
2022/06/15 12:28:55;;;;;;;5.25;3.05;;;35.30;68.30;;;;;;5065891;28;20185;-65
2022/06/15 12:31:33;;;;;;;3.25;2.95;;;35.20;72.60;;;;;;5067000;28;20217;-65
2022/06/15 12:34:11;;;;;;;5.57;3.20;;;35.20;66.80;;;;;;5071573;28;20209;-68
2022/06/15 12:36:43;;;;;;;5.82;3.20;;;34.70;68.20;;;;;;5062383;28;20182;-66
2022/06/15 12:39:14;;;;;;;5.78;3.67;;;34.50;68.60;;;;;;5069270;28;20217;-68
2022/06/15 12:44:51;;;;;;;4.07;3.00;;;34.50;69.20;;;;;;5071987;28;20185;-68
2022/06/15 12:47:18;;;;;;;5.65;3.22;;;34.60;70.20;;;;;;5065579;28;20190;-65
2022/06/15 12:50:11;;;;;;;3.55;2.78;;;34.60;69.40;;;;;;5065665;28;20190;-67
2022/06/15 12:52:44;;;;;;;5.30;3.28;;;34.70;72.70;;;;;;5056016;28;20182;-67
2022/06/15 12:55:25;;;;;;;3.42;2.72;;;34.70;67.10;;;;;;5062201;28;20179;-66
2022/06/15 12:57:55;;;;;;;5.75;3.00;;;34.60;66.10;;;;;;5067533;28;20178;-68
2022/06/15 13:00:44;;;;;;;4.47;2.60;;;34.40;67.50;;;;;;5071282;28;20661;-68
2022/06/15 13:03:27;;;;;;;4.57;2.83;;;34.00;75.60;;;;;;5067477;28;20641;-68
2022/06/15 13:06:18;;;;;;;3.22;2.90;;;33.90;66.50;;;;;;5071457;28;20178;-66
2022/06/15 13:08:46;;;;;;;3.65;3.30;;;34.00;66.10;;;;;;5070779;28;20615;-67
2022/06/15 13:11:16;;;;;;;4.80;3.20;;;34.00;68.60;;;;;;5062347;28;20646;-67
2022/06/15 13:13:47;;;;;;;3.60;3.30;;;34.10;68.60;;;;;;5066549;28;20890;-65
2022/06/15 13:16:28;;;;;;;3.55;3.13;;;34.40;68.30;;;;;;5063749;28;20543;-67
2022/06/15 13:18:55;;;;;;;4.22;2.78;;;34.40;68.00;;;;;;5053924;28;20716;-68
2022/06/15 13:21:25;;;;;;;4.72;3.53;;;34.20;67.60;;;;;;5070641;28;20205;-66
2022/06/15 13:23:51;;;;;;;5.18;3.35;;;33.90;66.70;;;;;;5069386;28;20908;-66
2022/06/15 13:26:18;;;;;;;4.00;2.75;;;33.60;70.20;;;;;;5066526;28;20195;-67
2022/06/15 13:29:04;;;;;;;3.30;3.00;;;33.40;67.60;;;;;;5061311;28;20684;-67
2022/06/15 13:31:43;;;;;;;4.10;2.97;;;33.70;66.30;;;;;;5045207;28;20222;-65
2022/06/15 13:34:11;;;;;;;4.53;3.17;;;33.80;67.40;;;;;;5067150;28;20213;-67
2022/06/15 13:36:37;;;;;;;4.93;3.20;;;34.00;66.50;;;;;;5070029;28;20265;-67
2022/06/15 13:39:40;;;;;;;3.42;3.13;;;34.00;67.30;;;;;;5071605;28;20444;-66